createdAt,value
2022-08-10T00:00:01.947Z,13.6
2022-08-10T00:05:15.593Z,13.5
2022-08-10T00:15:00.813Z,13.4
2022-08-10T00:20:02.330Z,13.3
2022-08-10T00:30:00.872Z,13.2
2022-08-10T00:40:01.024Z,13.1
2022-08-10T00:45:00.886Z,13.1
2022-08-10T00:50:00.825Z,13.0
2022-08-10T01:00:02.730Z,13.0
2022-08-10T01:05:01.837Z,12.9
2022-08-10T01:15:00.899Z,12.8
2022-08-10T01:20:01.930Z,12.7
2022-08-10T01:30:00.950Z,12.7
2022-08-10T01:40:00.913Z,12.6
2022-08-10T01:45:01.012Z,12.6
2022-08-10T01:50:00.938Z,12.5
2022-08-10T02:00:03.267Z,12.4
2022-08-10T02:10:00.933Z,12.3
2022-08-10T02:15:01.073Z,12.3
2022-08-10T02:30:00.959Z,12.3
2022-08-10T02:40:00.628Z,12.2
2022-08-10T02:45:17.305Z,12.2
2022-08-10T02:55:06.090Z,12.1
2022-08-10T03:00:00.662Z,12.1
2022-08-10T03:10:00.677Z,12.0
2022-08-10T03:15:00.794Z,12.0
2022-08-10T03:25:00.675Z,11.9
2022-08-10T03:30:23.899Z,11.9
2022-08-10T03:35:00.676Z,11.8
2022-08-10T03:45:00.669Z,11.8
2022-08-10T04:00:00.670Z,11.8
2022-08-10T04:10:00.683Z,11.7
2022-08-10T04:15:00.709Z,11.7
2022-08-10T04:20:00.696Z,11.8
2022-08-10T04:40:00.851Z,11.9
2022-08-10T04:45:00.883Z,11.9
2022-08-10T04:50:00.887Z,12.0
2022-08-10T04:55:00.853Z,12.1
2022-08-10T05:00:02.150Z,12.3
2022-08-10T05:05:05.803Z,12.4
2022-08-10T05:10:05.978Z,12.6
2022-08-10T05:15:00.887Z,12.7
2022-08-10T05:20:02.434Z,12.9
2022-08-10T05:25:07.596Z,13.1
2022-08-10T05:30:01.880Z,13.3
2022-08-10T05:35:00.885Z,13.4
2022-08-10T05:40:00.910Z,13.7
2022-08-10T05:45:00.865Z,13.8
2022-08-10T05:50:00.887Z,14.1
2022-08-10T05:55:02.824Z,14.3
2022-08-10T06:00:09.240Z,14.6
2022-08-10T06:05:02.071Z,14.8
2022-08-10T06:10:01.117Z,15.2
2022-08-10T06:15:04.091Z,15.4
2022-08-10T06:20:00.881Z,15.7
2022-08-10T06:25:27.259Z,15.9
2022-08-10T06:30:00.901Z,16.3
2022-08-10T06:35:01.039Z,16.6
2022-08-10T06:40:00.966Z,17.0
2022-08-10T06:45:00.990Z,17.2
2022-08-10T06:50:01.601Z,17.6
2022-08-10T06:55:00.993Z,17.8
2022-08-10T07:00:02.533Z,18.2
2022-08-10T07:05:01.047Z,18.4
2022-08-10T07:10:00.895Z,18.7
2022-08-10T07:15:01.031Z,18.9
2022-08-10T07:20:00.894Z,19.2
2022-08-10T07:25:05.935Z,19.3
2022-08-10T07:30:01.033Z,19.6
2022-08-10T07:35:01.230Z,19.7
2022-08-10T07:40:03.069Z,19.9
2022-08-10T07:45:00.984Z,20.0
2022-08-10T07:50:00.911Z,20.2
2022-08-10T07:55:00.980Z,20.4
2022-08-10T08:00:02.659Z,20.6
2022-08-10T08:05:01.080Z,20.8
2022-08-10T08:10:01.240Z,21.0
2022-08-10T08:15:01.044Z,21.2
2022-08-10T08:20:00.875Z,21.4
2022-08-10T08:25:01.007Z,21.6
2022-08-10T08:30:00.943Z,21.8
2022-08-10T08:40:01.018Z,22.0
2022-08-10T08:45:01.053Z,22.1
2022-08-10T08:50:05.493Z,22.3
2022-08-10T08:55:01.058Z,22.5
2022-08-10T09:00:02.532Z,22.6
2022-08-10T09:10:16.827Z,22.7
2022-08-10T09:15:00.981Z,22.7
2022-08-10T09:20:01.266Z,22.8
2022-08-10T09:25:01.063Z,23.0
2022-08-10T09:30:00.950Z,23.2
2022-08-10T09:36:27.187Z,23.4
2022-08-10T09:40:06.456Z,23.5
2022-08-10T09:45:00.858Z,23.5
2022-08-10T09:50:04.328Z,23.7
2022-08-10T09:55:01.096Z,23.8
2022-08-10T10:00:02.655Z,23.9
2022-08-10T10:05:01.059Z,24.1
2022-08-10T10:10:00.979Z,24.3
2022-08-10T10:15:01.012Z,24.5
2022-08-10T10:20:00.944Z,24.6
2022-08-10T10:25:01.073Z,24.8
2022-08-10T10:30:00.944Z,24.9
2022-08-10T10:40:01.283Z,25.0
2022-08-10T10:45:01.022Z,25.0
2022-08-10T10:55:01.079Z,25.1
2022-08-10T11:00:02.502Z,25.3
2022-08-10T11:05:01.082Z,25.5
2022-08-10T11:10:04.229Z,25.6
2022-08-10T11:15:00.908Z,25.8
2022-08-10T11:20:03.147Z,26.0
2022-08-10T11:30:01.041Z,26.1
2022-08-10T11:35:10.859Z,26.2
2022-08-10T11:40:00.982Z,26.3
2022-08-10T11:45:01.042Z,26.3
2022-08-10T12:00:02.505Z,26.4
2022-08-10T12:10:03.397Z,26.5
2022-08-10T12:15:01.166Z,26.6
2022-08-10T12:20:01.758Z,26.7
2022-08-10T12:25:01.050Z,26.8
2022-08-10T12:30:02.087Z,27.0
2022-08-10T12:35:01.051Z,27.1
2022-08-10T12:45:01.045Z,27.1
2022-08-10T12:55:01.047Z,27.0
2022-08-10T13:00:17.097Z,26.9
2022-08-10T13:15:01.011Z,27.0
2022-08-10T13:25:01.023Z,27.1
2022-08-10T13:30:03.847Z,27.0
2022-08-10T13:35:00.990Z,26.9
2022-08-10T13:45:01.135Z,26.8
2022-08-10T13:55:01.227Z,26.9
2022-08-10T14:00:33.371Z,27.0
2022-08-10T14:15:01.047Z,26.9
2022-08-10T14:25:01.131Z,27.0
2022-08-10T14:30:01.199Z,27.0
2022-08-10T14:36:17.517Z,26.9
2022-08-10T14:40:00.955Z,26.8
2022-08-10T14:45:01.142Z,26.7
2022-08-10T14:50:01.095Z,26.6
2022-08-10T14:55:01.163Z,26.5
2022-08-10T15:00:24.046Z,26.4
2022-08-10T15:10:04.238Z,26.5
2022-08-10T15:15:01.292Z,26.5
2022-08-10T15:30:01.168Z,26.5
2022-08-10T15:35:01.173Z,26.4
2022-08-10T15:45:01.094Z,26.4
2022-08-10T15:55:01.164Z,26.5
2022-08-10T16:00:15.847Z,26.5
2022-08-10T16:15:01.018Z,26.5
2022-08-10T16:20:01.051Z,26.6
2022-08-10T16:25:01.172Z,26.7
2022-08-10T16:30:01.033Z,26.9
2022-08-10T16:35:01.097Z,27.0
2022-08-10T16:40:01.603Z,27.3
2022-08-10T16:45:01.040Z,27.5
2022-08-10T17:00:02.033Z,27.5
2022-08-10T17:05:01.037Z,27.3
2022-08-10T17:10:01.241Z,27.0
2022-08-10T17:15:09.290Z,26.8
2022-08-10T17:20:29.942Z,26.3
2022-08-10T17:25:15.982Z,25.9
2022-08-10T17:30:03.384Z,25.3
2022-08-10T17:35:01.055Z,24.9
2022-08-10T17:40:01.056Z,24.4
2022-08-10T17:45:01.112Z,24.2
2022-08-10T17:50:01.113Z,23.9
2022-08-10T17:55:01.064Z,23.6
2022-08-10T18:00:02.237Z,23.3
2022-08-10T18:05:01.056Z,23.1
2022-08-10T18:10:01.059Z,22.9
2022-08-10T18:15:01.062Z,22.8
2022-08-10T18:20:01.058Z,22.6
2022-08-10T18:25:01.059Z,22.5
2022-08-10T18:30:01.063Z,22.3
2022-08-10T18:35:01.107Z,22.2
2022-08-10T18:40:01.073Z,22.0
2022-08-10T18:45:02.332Z,21.8
2022-08-10T18:50:01.086Z,21.6
2022-08-10T18:55:01.065Z,21.4
2022-08-10T19:00:04.173Z,21.0
2022-08-10T19:05:01.072Z,20.8
2022-08-10T19:10:01.078Z,20.5
2022-08-10T19:15:01.072Z,20.3
2022-08-10T19:20:01.205Z,20.0
2022-08-10T19:25:01.077Z,19.9
2022-08-10T19:30:10.381Z,19.7
2022-08-10T19:35:07.185Z,19.5
2022-08-10T19:40:01.292Z,19.3
2022-08-10T19:45:01.092Z,19.1
2022-08-10T19:50:01.097Z,18.9
2022-08-10T19:55:01.105Z,18.7
2022-08-10T20:00:17.902Z,18.6
2022-08-10T20:05:01.101Z,18.5
2022-08-10T20:10:01.098Z,18.3
2022-08-10T20:15:01.095Z,18.2
2022-08-10T20:20:01.102Z,18.1
2022-08-10T20:25:01.194Z,18.0
2022-08-10T20:30:06.879Z,17.8
2022-08-10T20:35:01.228Z,17.7
2022-08-10T20:40:01.100Z,17.6
2022-08-10T20:45:01.164Z,17.5
2022-08-10T20:50:01.107Z,17.4
2022-08-10T20:55:01.302Z,17.3
2022-08-10T21:00:04.376Z,17.2
2022-08-10T21:05:03.289Z,17.1
2022-08-10T21:10:01.108Z,17.0
2022-08-10T21:15:01.240Z,17.0
2022-08-10T21:20:01.111Z,16.9
2022-08-10T21:30:03.484Z,16.8
2022-08-10T21:35:01.244Z,16.7
2022-08-10T21:40:01.319Z,16.6
2022-08-10T21:45:02.864Z,16.5
2022-08-10T21:50:04.319Z,16.4
2022-08-10T22:00:02.909Z,16.3
2022-08-10T22:05:01.280Z,16.2
2022-08-10T22:10:01.149Z,16.1
2022-08-10T22:15:02.015Z,16.0
2022-08-10T22:20:01.150Z,15.9
2022-08-10T22:25:01.223Z,15.8
2022-08-10T22:30:01.154Z,15.8
2022-08-10T22:35:01.500Z,15.7
2022-08-10T22:40:07.478Z,15.6
2022-08-10T22:45:06.262Z,15.5
2022-08-10T22:55:01.203Z,15.4
2022-08-10T23:00:02.756Z,15.3
2022-08-10T23:05:15.938Z,15.2
2022-08-10T23:15:01.166Z,15.1
2022-08-10T23:20:01.139Z,15.0
2022-08-10T23:30:03.944Z,14.9
2022-08-10T23:36:05.352Z,14.8
2022-08-10T23:40:01.079Z,14.7
2022-08-10T23:45:01.276Z,14.7
2022-08-10T23:50:01.141Z,14.6
2022-08-10T23:55:01.271Z,14.5
